Riverbank, New York
Current Conditions -  °F | °C
As of 7:53 PM on Saturday 25 Oct 2014 (Local Time) from KGFL Reporting Station
Moderate Rain Moderate Rain  
Wind Chill: 54°   Ceiling: 4500
Heat Index: 54°   Visibility: 3mi
Dew Point: 48°   Wind: 10mph
Humidity: 80%   Direction: 270°W
Pressure: 29.57"   Gusts: NA
Location:  43.4835°N, 73.8027°W
Report Text: KGFL 252353Z AUTO 27009KT 230V300 3SM RA FEW030 BKN045 OVC055 12/09 A2957 RMK AO2 RAB03 PRESRR SLP018 P0005 60005 T01220089 10161 20122 55001
Loading
Personal Weather Stations






























Interactive Weather Map
Tropical Storm Tracking
New forecast layout! Learn more

10-Day Weather Forecast

Advertisements
Track Severe Weather on mobile